createdAt,value
2019-02-20T00:01:42.575Z,0.50
2019-02-20T00:04:15.629Z,0.45
2019-02-20T00:06:48.655Z,0.45
2019-02-20T00:09:20.381Z,0.45
2019-02-20T00:11:52.237Z,0.46
2019-02-20T00:14:24.145Z,0.42
2019-02-20T00:16:56.038Z,0.37
2019-02-20T00:19:28.405Z,0.34
2019-02-20T00:22:00.332Z,0.32
2019-02-20T00:24:32.078Z,0.32
2019-02-20T00:27:03.676Z,0.37
2019-02-20T00:29:35.588Z,0.41
2019-02-20T00:32:07.283Z,0.44
2019-02-20T00:34:39.111Z,0.50
2019-02-20T00:37:10.873Z,0.59
2019-02-20T00:39:42.443Z,0.68
2019-02-20T00:42:14.123Z,0.77
2019-02-20T00:45:22.516Z,0.88
2019-02-20T00:48:18.220Z,1.10
2019-02-20T00:50:51.497Z,1.31
2019-02-20T00:53:27.784Z,1.45
2019-02-20T00:56:02.228Z,1.47
2019-02-20T00:58:34.131Z,1.53
2019-02-20T01:01:05.898Z,1.41
2019-02-20T01:03:37.773Z,1.30
2019-02-20T01:06:12.268Z,1.24
2019-02-20T01:08:44.383Z,1.32
2019-02-20T01:11:15.927Z,1.40
2019-02-20T01:13:47.633Z,1.52
2019-02-20T01:16:19.201Z,1.58
2019-02-20T01:18:50.897Z,1.69
2019-02-20T01:21:22.685Z,1.80
2019-02-20T01:23:54.538Z,1.84
2019-02-20T01:26:26.181Z,1.79
2019-02-20T01:28:57.921Z,1.84
2019-02-20T01:31:29.834Z,1.84
2019-02-20T01:34:01.670Z,1.71
2019-02-20T01:36:34.191Z,1.66
2019-02-20T01:39:06.769Z,1.65
2019-02-20T01:41:38.408Z,1.69
2019-02-20T01:44:10.000Z,1.71
2019-02-20T01:46:41.634Z,1.76
2019-02-20T01:49:14.322Z,1.78
2019-02-20T01:51:46.186Z,1.77
2019-02-20T01:54:17.776Z,1.81
2019-02-20T01:56:49.379Z,1.83
2019-02-20T01:59:21.140Z,1.84
2019-02-20T02:01:52.675Z,1.89
2019-02-20T02:04:24.384Z,1.96
2019-02-20T02:06:55.979Z,2.00
2019-02-20T02:09:27.601Z,2.07
2019-02-20T02:11:59.220Z,2.12
2019-02-20T02:14:30.851Z,2.15
2019-02-20T02:17:02.380Z,2.17
2019-02-20T02:19:34.297Z,2.11
2019-02-20T02:22:06.392Z,2.15
2019-02-20T02:24:37.856Z,2.21
2019-02-20T02:27:10.435Z,2.27
2019-02-20T02:29:42.030Z,2.28
2019-02-20T02:32:14.495Z,2.34
2019-02-20T02:34:46.071Z,2.39
2019-02-20T02:37:17.781Z,2.43
2019-02-20T02:39:49.422Z,2.42
2019-02-20T02:42:21.030Z,2.44
2019-02-20T02:44:52.702Z,2.36
2019-02-20T02:47:24.506Z,2.31
2019-02-20T02:49:56.507Z,2.25
2019-02-20T02:52:28.139Z,2.26
2019-02-20T02:54:59.874Z,2.24
2019-02-20T02:57:31.712Z,2.25
2019-02-20T03:00:03.481Z,2.29
2019-02-20T03:02:35.397Z,2.33
2019-02-20T03:05:07.292Z,2.31
2019-02-20T03:07:39.105Z,2.28
2019-02-20T03:10:10.775Z,2.27
2019-02-20T03:12:42.628Z,2.28
2019-02-20T03:15:14.305Z,2.24
2019-02-20T03:17:45.801Z,2.25
2019-02-20T03:20:17.584Z,2.27
2019-02-20T03:22:49.263Z,2.23
2019-02-20T03:25:20.987Z,2.28
2019-02-20T03:27:53.316Z,2.33
2019-02-20T03:30:25.089Z,2.35
2019-02-20T03:32:56.770Z,2.38
2019-02-20T03:35:28.532Z,2.37
2019-02-20T03:38:00.250Z,2.39
2019-02-20T03:40:32.050Z,2.39
2019-02-20T03:43:04.267Z,2.43
2019-02-20T03:45:36.029Z,2.37
2019-02-20T03:48:07.692Z,2.34
2019-02-20T03:50:39.356Z,2.38
2019-02-20T03:53:11.101Z,2.41
2019-02-20T03:55:42.620Z,2.38
2019-02-20T03:58:14.299Z,2.36
2019-02-20T04:00:45.862Z,2.37
2019-02-20T04:03:17.678Z,2.40
2019-02-20T04:05:49.407Z,2.34
2019-02-20T04:08:21.081Z,2.25
2019-02-20T04:10:52.679Z,2.25
2019-02-20T04:13:24.386Z,2.19
2019-02-20T04:15:56.063Z,2.20
2019-02-20T04:18:27.739Z,2.20
2019-02-20T04:20:59.580Z,2.23
2019-02-20T04:23:31.243Z,2.24
2019-02-20T04:26:02.694Z,2.22
2019-02-20T04:28:41.413Z,2.23
2019-02-20T04:31:12.999Z,2.28
2019-02-20T04:33:44.727Z,2.32
2019-02-20T04:36:16.924Z,2.32
2019-02-20T04:38:48.551Z,2.35
2019-02-20T04:41:20.520Z,2.41
2019-02-20T04:43:52.119Z,2.44
2019-02-20T04:46:23.771Z,2.50
2019-02-20T04:49:01.646Z,2.53
2019-02-20T04:51:33.310Z,2.55
2019-02-20T04:54:12.958Z,2.52
2019-02-20T04:56:40.819Z,2.50
2019-02-20T04:59:12.513Z,2.43
2019-02-20T05:01:44.132Z,2.35
2019-02-20T05:04:16.243Z,2.35
2019-02-20T05:06:47.941Z,2.35
2019-02-20T05:09:19.632Z,2.37
2019-02-20T05:11:51.652Z,2.38
2019-02-20T05:14:23.553Z,2.41
2019-02-20T05:16:55.332Z,2.45
2019-02-20T05:19:27.435Z,2.50
2019-02-20T05:21:59.082Z,2.55
2019-02-20T05:24:50.053Z,2.56
2019-02-20T05:27:22.041Z,2.59
2019-02-20T05:29:54.083Z,2.62
2019-02-20T05:32:25.913Z,2.66
2019-02-20T05:34:57.588Z,2.67
2019-02-20T05:37:29.197Z,2.72
2019-02-20T05:40:01.507Z,2.72
2019-02-20T05:42:33.115Z,2.73
2019-02-20T05:45:04.766Z,2.71
2019-02-20T05:47:36.379Z,2.73
2019-02-20T05:50:08.275Z,2.72
2019-02-20T05:52:39.996Z,2.72
2019-02-20T05:55:12.362Z,2.72
2019-02-20T05:57:44.349Z,2.74
2019-02-20T06:00:16.273Z,2.74
2019-02-20T06:02:48.773Z,2.73
2019-02-20T06:05:20.788Z,2.74
2019-02-20T06:07:53.372Z,2.77
2019-02-20T06:10:25.294Z,2.80
2019-02-20T06:12:57.351Z,2.83
2019-02-20T06:15:29.061Z,2.85
2019-02-20T06:18:01.378Z,2.88
2019-02-20T06:20:33.009Z,2.87
2019-02-20T06:23:04.914Z,2.87
2019-02-20T06:25:36.536Z,2.93
2019-02-20T06:28:08.451Z,2.89
2019-02-20T06:30:40.295Z,2.93
2019-02-20T06:33:12.074Z,2.94
2019-02-20T06:35:44.064Z,3.05
2019-02-20T06:38:15.920Z,3.11
2019-02-20T06:40:47.680Z,3.14
2019-02-20T06:43:19.887Z,3.12
2019-02-20T06:45:51.878Z,3.19
2019-02-20T06:48:23.548Z,3.32
2019-02-20T06:50:55.421Z,3.45
2019-02-20T06:53:30.028Z,3.76
2019-02-20T06:56:01.977Z,4.32
2019-02-20T06:58:33.902Z,4.23
2019-02-20T07:01:05.760Z,4.22
2019-02-20T07:03:37.509Z,4.25
2019-02-20T07:07:05.238Z,4.37
2019-02-20T07:11:03.918Z,4.65
2019-02-20T07:14:18.573Z,4.50
2019-02-20T07:17:34.202Z,4.38
2019-02-20T07:21:14.441Z,4.76
2019-02-20T07:24:26.363Z,4.90
2019-02-20T07:28:01.459Z,7.11
2019-02-20T07:30:33.201Z,9.36
2019-02-20T07:33:04.972Z,11.16
2019-02-20T07:35:45.864Z,12.64
2019-02-20T07:38:17.980Z,13.52
2019-02-20T07:40:49.840Z,14.11
2019-02-20T07:43:21.664Z,14.11
2019-02-20T07:45:57.185Z,13.94
2019-02-20T07:48:31.624Z,13.69
2019-02-20T07:51:09.582Z,14.66
2019-02-20T07:53:45.333Z,14.89
2019-02-20T07:56:18.635Z,15.50
2019-02-20T07:58:53.619Z,16.08
2019-02-20T08:01:29.110Z,15.99
2019-02-20T08:04:04.285Z,16.36
2019-02-20T08:06:42.268Z,16.56
2019-02-20T08:09:18.041Z,17.61
2019-02-20T08:11:53.605Z,17.96
2019-02-20T08:14:28.077Z,17.80
2019-02-20T08:17:04.531Z,17.84
2019-02-20T08:19:40.816Z,18.68
2019-02-20T08:22:15.275Z,18.91
2019-02-20T08:24:51.100Z,19.40
2019-02-20T08:27:29.603Z,20.10
2019-02-20T08:30:07.040Z,19.52
2019-02-20T08:32:46.310Z,20.41
2019-02-20T08:35:21.545Z,21.13
2019-02-20T08:37:59.625Z,21.51
2019-02-20T08:40:35.664Z,22.03
2019-02-20T08:43:12.005Z,22.18
2019-02-20T08:45:47.304Z,22.20
2019-02-20T08:48:26.559Z,22.73
2019-02-20T08:51:02.565Z,23.06
2019-02-20T08:53:36.807Z,22.91
2019-02-20T08:56:13.745Z,23.09
2019-02-20T08:58:49.971Z,23.01
2019-02-20T09:01:24.430Z,23.18
2019-02-20T09:03:58.090Z,24.11
2019-02-20T09:06:31.372Z,24.86
2019-02-20T09:09:06.472Z,24.82
2019-02-20T09:11:42.419Z,24.82
2019-02-20T09:14:18.111Z,24.37
2019-02-20T09:16:54.658Z,25.01
2019-02-20T09:19:29.339Z,24.52
2019-02-20T09:22:19.444Z,24.67
2019-02-20T09:24:53.478Z,24.73
2019-02-20T09:27:29.080Z,24.97
2019-02-20T09:30:03.675Z,25.65
2019-02-20T09:32:35.874Z,25.34
2019-02-20T09:35:07.696Z,25.46
2019-02-20T09:37:45.289Z,25.44
2019-02-20T09:40:18.926Z,24.30
2019-02-20T09:42:50.962Z,24.49
2019-02-20T09:45:22.796Z,23.91
2019-02-20T09:47:54.979Z,22.46
2019-02-20T09:50:27.407Z,23.22
2019-02-20T09:52:59.405Z,21.63
2019-02-20T09:55:31.496Z,22.54
2019-02-20T09:58:03.097Z,23.94
2019-02-20T10:00:38.704Z,24.11
2019-02-20T10:03:11.059Z,23.86
2019-02-20T10:05:43.441Z,22.30
2019-02-20T10:08:15.179Z,22.66
2019-02-20T10:10:47.238Z,23.77
2019-02-20T10:13:19.245Z,24.67
2019-02-20T10:15:52.378Z,24.86
2019-02-20T10:18:23.925Z,23.59
2019-02-20T10:20:55.795Z,24.18
2019-02-20T10:23:27.467Z,24.63
2019-02-20T10:26:01.152Z,23.91
2019-02-20T10:28:40.117Z,23.43
2019-02-20T10:31:11.823Z,23.71
2019-02-20T10:33:43.642Z,23.37
2019-02-20T10:36:15.742Z,23.50
2019-02-20T10:38:47.769Z,22.42
2019-02-20T10:41:19.735Z,22.07
2019-02-20T10:43:52.618Z,21.14
2019-02-20T10:46:25.012Z,22.88
2019-02-20T10:48:56.779Z,23.90
2019-02-20T10:51:28.877Z,23.47
2019-02-20T10:54:00.893Z,24.52
2019-02-20T10:56:32.965Z,24.49
2019-02-20T10:59:05.051Z,24.91
2019-02-20T11:01:37.547Z,24.90
2019-02-20T11:04:09.529Z,25.37
2019-02-20T11:06:41.707Z,25.48
2019-02-20T11:09:16.384Z,25.00
2019-02-20T11:11:47.967Z,25.19
2019-02-20T11:14:19.908Z,24.31
2019-02-20T11:16:51.703Z,24.05
2019-02-20T11:19:23.574Z,23.72
2019-02-20T11:21:55.653Z,23.58
2019-02-20T11:24:27.431Z,22.74
2019-02-20T11:26:59.468Z,23.10
2019-02-20T11:29:31.534Z,23.51
2019-02-20T11:32:03.217Z,24.08
2019-02-20T11:34:36.154Z,24.87
2019-02-20T11:37:07.851Z,25.65
2019-02-20T11:39:44.218Z,25.39
2019-02-20T11:42:16.027Z,25.62
2019-02-20T11:44:47.991Z,24.90
2019-02-20T11:47:20.833Z,24.37
2019-02-20T11:49:53.377Z,25.09
2019-02-20T11:52:25.311Z,25.25
2019-02-20T11:54:57.251Z,24.60
2019-02-20T11:57:29.010Z,24.90
2019-02-20T12:00:00.924Z,25.51
2019-02-20T12:02:37.477Z,25.42
2019-02-20T12:05:06.338Z,25.74
2019-02-20T12:07:38.602Z,25.40
2019-02-20T12:10:12.798Z,24.77
2019-02-20T12:12:44.991Z,24.43
2019-02-20T12:15:16.670Z,24.23
2019-02-20T12:17:48.875Z,24.97
2019-02-20T12:20:20.643Z,24.41
2019-02-20T12:22:52.686Z,24.36
2019-02-20T12:25:24.949Z,23.04
2019-02-20T12:27:57.025Z,23.73
2019-02-20T12:30:30.805Z,24.61
2019-02-20T12:33:03.772Z,24.90
2019-02-20T12:35:35.483Z,24.35
2019-02-20T12:38:07.368Z,24.21
2019-02-20T12:40:40.683Z,24.58
2019-02-20T12:43:12.396Z,24.24
2019-02-20T12:45:44.277Z,24.04
2019-02-20T12:48:16.929Z,24.02
2019-02-20T12:50:49.041Z,24.72
2019-02-20T12:53:21.691Z,24.77
2019-02-20T12:56:00.797Z,24.68
2019-02-20T12:58:32.498Z,24.68
2019-02-20T13:01:11.069Z,24.67
2019-02-20T13:03:43.017Z,23.85
2019-02-20T13:06:14.855Z,23.51
2019-02-20T13:08:46.977Z,23.37
2019-02-20T13:11:18.962Z,24.20
2019-02-20T13:13:51.902Z,23.52
2019-02-20T13:16:24.248Z,24.12
2019-02-20T13:18:57.282Z,24.40
2019-02-20T13:21:29.342Z,23.69
2019-02-20T13:24:03.160Z,23.84
2019-02-20T13:26:35.055Z,24.08
2019-02-20T13:29:08.002Z,24.04
2019-02-20T13:31:40.022Z,23.88
2019-02-20T13:34:12.420Z,23.39
2019-02-20T13:36:44.477Z,23.66
2019-02-20T13:39:16.424Z,23.68
2019-02-20T13:41:48.250Z,23.90
2019-02-20T13:44:20.040Z,23.70
2019-02-20T13:46:51.967Z,23.19
2019-02-20T13:49:24.183Z,23.83
2019-02-20T13:51:56.410Z,23.90
2019-02-20T13:54:28.272Z,23.68
2019-02-20T13:57:04.925Z,22.47
2019-02-20T13:59:34.443Z,22.66
2019-02-20T14:02:08.551Z,22.69
2019-02-20T14:04:40.880Z,22.94
2019-02-20T14:07:13.065Z,22.73
2019-02-20T14:09:45.421Z,22.82
2019-02-20T14:12:17.655Z,22.84
2019-02-20T14:14:49.570Z,22.86
2019-02-20T14:17:26.739Z,22.28
2019-02-20T14:19:56.227Z,22.41
2019-02-20T14:22:29.111Z,21.60
2019-02-20T14:25:02.685Z,21.51
2019-02-20T14:27:35.128Z,21.93
2019-02-20T14:30:07.122Z,21.57
2019-02-20T14:32:39.345Z,21.72
2019-02-20T14:35:11.446Z,21.23
2019-02-20T14:37:43.541Z,21.11
2019-02-20T14:40:15.433Z,21.49
2019-02-20T14:42:47.997Z,21.16
2019-02-20T14:45:19.753Z,21.11
2019-02-20T14:47:51.573Z,21.51
2019-02-20T14:50:23.682Z,21.76
2019-02-20T14:52:55.659Z,21.65
2019-02-20T14:55:27.991Z,20.95
2019-02-20T14:58:00.188Z,20.48
2019-02-20T15:00:32.335Z,20.74
2019-02-20T15:03:04.500Z,20.98
2019-02-20T15:05:36.330Z,20.83
2019-02-20T15:08:08.408Z,20.62
2019-02-20T15:10:40.169Z,20.54
2019-02-20T15:13:12.030Z,20.64
2019-02-20T15:15:44.201Z,20.29
2019-02-20T15:18:16.198Z,20.43
2019-02-20T15:20:48.828Z,20.33
2019-02-20T15:23:29.150Z,20.42
2019-02-20T15:26:00.961Z,19.95
2019-02-20T15:28:33.510Z,19.63
2019-02-20T15:31:05.796Z,19.61
2019-02-20T15:33:37.951Z,19.66
2019-02-20T15:36:10.251Z,19.58
2019-02-20T15:38:42.767Z,19.41
2019-02-20T15:41:28.206Z,18.64
2019-02-20T15:44:00.574Z,18.60
2019-02-20T15:46:32.666Z,18.51
2019-02-20T15:49:04.929Z,18.62
2019-02-20T15:51:36.801Z,18.70
2019-02-20T15:54:08.743Z,18.72
2019-02-20T15:56:41.145Z,18.44
2019-02-20T15:59:13.282Z,18.29
2019-02-20T16:01:45.693Z,18.24
2019-02-20T16:04:18.101Z,18.06
2019-02-20T16:06:50.674Z,17.93
2019-02-20T16:09:22.431Z,17.78
2019-02-20T16:11:54.211Z,17.44
2019-02-20T16:14:25.973Z,17.18
2019-02-20T16:16:58.417Z,16.98
2019-02-20T16:19:30.873Z,16.65
2019-02-20T16:22:03.162Z,16.37
2019-02-20T16:24:35.013Z,16.11
2019-02-20T16:27:07.432Z,15.87
2019-02-20T16:29:39.193Z,15.60
2019-02-20T16:32:11.116Z,15.33
2019-02-20T16:34:42.994Z,14.98
2019-02-20T16:37:14.795Z,14.54
2019-02-20T16:39:46.620Z,14.16
2019-02-20T16:42:18.602Z,13.89
2019-02-20T16:44:51.016Z,13.62
2019-02-20T16:47:23.177Z,13.26
2019-02-20T16:49:55.017Z,12.98
2019-02-20T16:52:28.106Z,12.78
2019-02-20T16:55:00.559Z,12.58
2019-02-20T16:57:33.152Z,12.23
2019-02-20T17:00:06.151Z,11.88
2019-02-20T17:02:38.632Z,11.53
2019-02-20T17:05:14.245Z,11.27
2019-02-20T17:07:45.380Z,11.04
2019-02-20T17:10:16.924Z,10.91
2019-02-20T17:12:49.247Z,10.82
2019-02-20T17:15:23.150Z,10.58
2019-02-20T17:17:55.310Z,10.43
2019-02-20T17:20:27.183Z,10.20
2019-02-20T17:22:58.995Z,10.07
2019-02-20T17:25:31.200Z,9.88
2019-02-20T17:28:06.042Z,9.77
2019-02-20T17:30:38.206Z,9.73
2019-02-20T17:33:10.017Z,9.69
2019-02-20T17:35:42.477Z,9.55
2019-02-20T17:38:14.437Z,9.43
2019-02-20T17:40:46.141Z,9.30
2019-02-20T17:43:18.558Z,9.25
2019-02-20T17:45:50.599Z,9.14
2019-02-20T17:48:24.351Z,9.07
2019-02-20T17:50:58.085Z,8.97
2019-02-20T17:53:30.996Z,8.85
2019-02-20T17:56:03.894Z,8.72
2019-02-20T17:58:37.612Z,8.66
2019-02-20T18:01:16.252Z,8.53
2019-02-20T18:03:48.645Z,8.47
2019-02-20T18:06:20.592Z,8.43
2019-02-20T18:08:52.662Z,8.33
2019-02-20T18:11:24.350Z,8.29
2019-02-20T18:13:56.489Z,8.27
2019-02-20T18:16:28.305Z,8.09
2019-02-20T18:19:00.450Z,7.91
2019-02-20T18:21:32.657Z,7.80
2019-02-20T18:24:04.396Z,7.82
2019-02-20T18:26:36.335Z,7.77
2019-02-20T18:29:08.464Z,7.71
2019-02-20T18:31:40.260Z,7.64
2019-02-20T18:34:12.808Z,7.44
2019-02-20T18:36:44.956Z,7.21
2019-02-20T18:39:16.882Z,7.09
2019-02-20T18:41:48.799Z,6.90
2019-02-20T18:44:20.623Z,6.70
2019-02-20T18:46:52.246Z,6.57
2019-02-20T18:49:24.186Z,6.58
2019-02-20T18:51:56.152Z,6.78
2019-02-20T18:54:28.645Z,6.82
2019-02-20T18:57:00.712Z,6.75
2019-02-20T18:59:32.611Z,6.74
2019-02-20T19:02:04.830Z,6.87
2019-02-20T19:04:36.513Z,6.84
2019-02-20T19:07:15.876Z,6.85
2019-02-20T19:09:50.885Z,6.69
2019-02-20T19:13:28.342Z,6.53
2019-02-20T19:17:10.022Z,6.39
2019-02-20T19:21:05.922Z,6.29
2019-02-20T19:25:01.650Z,6.14
2019-02-20T19:28:03.198Z,6.01
2019-02-20T19:31:28.978Z,5.91
2019-02-20T19:35:16.884Z,5.81
2019-02-20T19:38:27.513Z,5.67
2019-02-20T19:42:05.544Z,5.62
2019-02-20T19:45:48.964Z,5.47
2019-02-20T19:48:49.914Z,5.31
2019-02-20T19:52:24.646Z,5.27
2019-02-20T19:55:20.638Z,5.21
2019-02-20T19:58:54.610Z,5.20
2019-02-20T20:02:45.931Z,5.15
2019-02-20T20:05:58.861Z,5.14
2019-02-20T20:09:16.533Z,5.10
2019-02-20T20:12:51.636Z,5.05
2019-02-20T20:16:08.141Z,4.90
2019-02-20T20:19:39.964Z,4.71
2019-02-20T20:23:14.599Z,4.51
2019-02-20T20:26:31.172Z,4.32
2019-02-20T20:29:58.747Z,4.14
2019-02-20T20:33:23.691Z,4.03
2019-02-20T20:36:34.238Z,3.98
2019-02-20T20:40:03.831Z,3.86
2019-02-20T20:43:28.200Z,3.76
2019-02-20T20:47:02.605Z,3.66
2019-02-20T20:50:00.549Z,3.60
2019-02-20T20:53:51.564Z,3.55
2019-02-20T20:57:11.425Z,3.59
2019-02-20T21:00:32.921Z,4.41
2019-02-20T21:03:12.848Z,6.00
2019-02-20T21:06:49.634Z,5.93
2019-02-20T21:10:47.174Z,5.24
2019-02-20T21:14:24.303Z,4.65
2019-02-20T21:17:50.401Z,4.11
2019-02-20T21:21:23.001Z,3.88
2019-02-20T21:24:45.198Z,3.76
2019-02-20T21:28:07.844Z,5.08
2019-02-20T21:31:33.888Z,4.82
2019-02-20T21:34:40.689Z,4.41
2019-02-20T21:38:37.406Z,4.07
2019-02-20T21:41:43.504Z,3.78
2019-02-20T21:45:19.629Z,3.39
2019-02-20T21:49:06.418Z,3.01
2019-02-20T21:52:40.655Z,2.77
2019-02-20T21:55:53.574Z,2.65
2019-02-20T21:58:57.195Z,2.57
2019-02-20T22:02:01.427Z,2.51
2019-02-20T22:05:10.970Z,2.49
2019-02-20T22:08:34.150Z,2.44
2019-02-20T22:11:53.594Z,2.38
2019-02-20T22:15:03.308Z,2.23
2019-02-20T22:18:08.797Z,2.13
2019-02-20T22:21:47.150Z,2.09
2019-02-20T22:25:09.929Z,2.04
2019-02-20T22:28:22.462Z,2.00
2019-02-20T22:31:36.880Z,1.95
2019-02-20T22:34:44.475Z,1.96
2019-02-20T22:38:22.648Z,1.98
2019-02-20T22:41:32.935Z,1.96
2019-02-20T22:45:33.395Z,1.96
2019-02-20T22:49:01.102Z,2.01
2019-02-20T22:52:18.584Z,1.95
2019-02-20T22:55:54.830Z,1.89
2019-02-20T22:59:26.245Z,1.85
2019-02-20T23:02:41.581Z,1.83
2019-02-20T23:06:20.074Z,1.71
2019-02-20T23:09:26.804Z,1.64
2019-02-20T23:13:03.610Z,1.56
2019-02-20T23:15:35.704Z,1.50
2019-02-20T23:18:07.694Z,1.44
2019-02-20T23:20:39.506Z,1.41
2019-02-20T23:23:11.213Z,1.40
2019-02-20T23:25:42.946Z,1.35
2019-02-20T23:28:14.776Z,1.32
2019-02-20T23:30:46.666Z,1.35
2019-02-20T23:33:18.700Z,1.34
2019-02-20T23:35:50.856Z,1.31
2019-02-20T23:38:23.379Z,1.33
2019-02-20T23:40:57.402Z,1.33
2019-02-20T23:43:29.144Z,1.33
2019-02-20T23:46:00.995Z,1.34
2019-02-20T23:48:33.016Z,1.30
2019-02-20T23:51:04.940Z,1.19
2019-02-20T23:53:36.668Z,1.17
2019-02-20T23:56:08.304Z,1.13
2019-02-20T23:58:42.496Z,1.06
